• Join FlightAware (Why Join?)
  • Login
  • US Flag 
01:16PM EDT


 

Airport Tracker/Info


-or-


 

Live Flight TrackerFlight Track Log ✈ CPZ5750 ✈ 13-Jul-2013 ✈ KMSP - KALB

Flight Track Log - Related Links

Times and Time Zones

All times are in EDT time to prevent confusion due to time zone crossing. See the CPZ5750 flight status page for this flight to view local times or setup timezone preferences in your user account.

Time Position Orientation Groundspeed Altitude Reporting Facility
EDT Latitude Longitude Course Direction KTS MPH feet Rate Location/Type
04:41PM 44.8667 -93.1167 70° East 203 234 2,800  Level Minneapolis TRACON
04:42PM 44.9286 -93.0472 38° Northeast 284 327 4,900 2,160 Climbing Minneapolis Center
04:43PM 45.0366 -92.6303 68° East  Level FlightAware Approximate
04:43PM 45.0097 -93.0206 13° North 301 346 7,800  Level Minneapolis Center
04:44PM 45.0787 -92.4831 68° East  Level FlightAware Approximate
04:44PM 45.0761 -92.9678 29° Northeast 293 337 10,100  Level Minneapolis Center
04:45PM 45.1127 -92.3326 70° East  Level FlightAware Approximate
04:45PM 45.1172 -92.8617 61° Northeast 309 356 11,500  Level Minneapolis Center
04:46PM 45.1504 -92.1821 70° East  Level FlightAware Approximate
04:46PM 45.1572 -92.7397 65° Northeast 339 390 13,200  Level Minneapolis Center
04:47PM 45.2056 -92.5892 65° Northeast 349 402 15,200 1,740 Climbing Minneapolis Center
04:48PM 45.2469 -92.4614 65° Northeast 356 410 16,900 1,440 Climbing Minneapolis Center
04:49PM 45.2897 -92.3322 65° Northeast 361 415 18,200 1,200 Climbing Minneapolis Center
04:50PM 45.3031 -92.1903 82° East 367 422 19,400 1,200 Climbing Minneapolis Center
04:51PM 45.2933 -92.0397 95° East 382 440 20,700 1,080 Climbing Minneapolis Center
04:52PM 45.2861 -91.8883 94° East 385 443 21,700 1,200 Climbing Minneapolis Center
04:54PM 45.2756 -91.7033 95° East 392 451 23,200 1,200 Climbing Minneapolis Center
04:55PM 45.2669 -91.5492 94° East 392 451 24,200 1,320 Climbing Minneapolis Center
04:56PM 45.2550 -91.3956 96° East 393 452 26,000 1,260 Climbing Minneapolis Center
04:57PM 45.2453 -91.2442 95° East 383 441 26,900 900 Climbing Minneapolis Center
04:58PM 45.2364 -91.0947 95° East 382 440 27,900 960 Climbing Minneapolis Center
04:59PM 45.2256 -90.9381 96° East 393 452 28,900 960 Climbing Minneapolis Center
05:00PM 45.2169 -90.7828 94° East 397 457 29,900 1,080 Climbing Minneapolis Center
05:01PM 45.2042 -90.5908 95° East 406 467 31,200 960 Climbing Minneapolis Center
05:02PM 45.1919 -90.4303 96° East 411 473 32,000 660 Climbing Minneapolis Center
05:03PM 45.1808 -90.2658 95° East 418 481 32,600 480 Climbing Minneapolis Center
05:04PM 45.1683 -90.0992 96° East 426 490 33,000 180 Climbing Minneapolis Center
05:05PM 45.1564 -89.9281 96° East 434 499 33,000  Level Minneapolis Center
05:06PM 45.1403 -89.7192 96° East 445 512 33,000  Level Minneapolis Center
05:07PM 45.1272 -89.5442 96° East 449 517 33,000  Level Minneapolis Center
05:08PM 45.1125 -89.3692 97° East 450 518 33,000  Level Minneapolis Center
05:09PM 45.0994 -89.1950 96° East 449 517 33,000  Level Minneapolis Center
05:10PM 45.0853 -89.0225 97° East 445 512 33,000  Level Minneapolis Center
05:11PM 45.0708 -88.8478 97° East 448 516 33,000  Level Minneapolis Center
05:12PM 45.0533 -88.6428 97° East 441 507 33,000  Level Minneapolis Center
05:13PM 45.0383 -88.4797 97° East 439 505 33,000  Level Minneapolis Center
05:14PM 45.0250 -88.3078 96° East 435 501 33,000  Level Minneapolis Center
05:15PM 45.0089 -88.1403 98° East 437 503 33,000  Level Minneapolis Center
05:16PM 44.9936 -87.9700 97° East 438 504 33,000  Level Minneapolis Center
05:17PM 44.9753 -87.7669 97° East 436 502 33,000  Level Minneapolis Center
05:18PM 44.9592 -87.5989 98° East 433 498 33,000  Level Minneapolis Center
05:19PM 44.9425 -87.4300 98° East 436 502 33,000  Level Minneapolis Center
05:20PM 44.9250 -87.2636 98° East 432 497 33,000  Level Minneapolis Center
05:21PM 44.9097 -87.0961 97° East 431 496 33,000  Level Minneapolis Center
05:22PM 44.8928 -86.9292 98° East 432 497 33,000  Level Minneapolis Center
05:23PM 44.8733 -86.7347 98° East 429 494 33,000  Level Minneapolis Center
05:25PM 44.8556 -86.5667 98° East 432 497 33,000  Level Minneapolis Center
05:26PM 44.8381 -86.4011 98° East 430 495 33,000  Level Minneapolis Center
05:27PM 44.8206 -86.2356 98° East 428 493 33,000  Level Minneapolis Center
05:28PM 44.8028 -86.0675 98° East 431 496 33,000  Level Minneapolis Center
05:29PM 44.7836 -85.9019 99° East 431 496 33,000  Level Minneapolis Center
05:30PM 44.7622 -85.7036 99° East 428 493 33,000  Level Minneapolis Center
05:31PM 44.7453 -85.5522 99° East 429 494 33,000  Level Minneapolis Center
05:32PM 44.7275 -85.3900 99° East 424 488 33,000  Level Minneapolis Center
05:33PM 44.7006 -85.1608 99° East 424 488 33,000  Level Minneapolis Center
05:34PM 44.6811 -84.9986 100° East 422 486 33,100 420 Climbing Minneapolis Center
05:35PM 44.6617 -84.8378 100° East 420 483 33,900 420 Climbing Minneapolis Center
05:36PM 44.6428 -84.6769 99° East 419 482 34,000  Climbing Minneapolis Center
05:37PM 44.6228 -84.5150 100° East 421 484 34,000  Level Minneapolis Center
05:38PM 44.6036 -84.3531 99° East 422 486 34,000  Level Minneapolis Center
05:39PM 44.5786 -84.1606 100° East 419 482 34,000  Level Minneapolis Center
05:40PM 44.5575 -84.0033 101° East 415 478 34,000 240 Level Minneapolis Center
05:41PM 44.5386 -83.8456 99° East 413 475 34,600 480 Climbing Minneapolis Center
05:42PM 44.5181 -83.6881 100° East 412 474 35,000 180 Climbing Minneapolis Center
05:43PM 44.4969 -83.5303 101° East 413 475 35,000  Level Minneapolis Center
05:44PM 44.4761 -83.3728 100° East 413 475 35,000  Level Minneapolis Center
05:45PM 44.4508 -83.1842 101° East 413 475 35,000  Level Minneapolis Center
05:46PM 44.4292 -83.0272 101° East 412 474 35,000  Level Minneapolis Center
05:47PM 44.4097 -82.8694 100° East 413 475 35,000  Level Minneapolis Center
05:48PM 44.3875 -82.7125 101° East 413 475 35,000  Level Minneapolis Center
05:49PM 44.3661 -82.5556 101° East 413 475 35,000  Level Minneapolis Center
05:51PM 44.3447 -82.3989 101° East 412 474 35,000  Level Minneapolis Center
05:52PM 44.3214 -82.2425 102° East 412 474 35,000  Level Minneapolis Center
05:53PM 44.2667 -82.0000 107° East 410 472 35,000  Level Toronto Center
05:54PM 44.2667 -81.8667 90° East 410 472 35,000  Level Toronto Center
05:55PM 44.2333 -81.7000 106° East 420 483 35,000  Level Toronto Center
05:56PM 44.2000 -81.5333 106° East 420 483 35,000  Level Toronto Center
05:57PM 44.1833 -81.3833 99° East 420 483 35,000  Level Toronto Center
05:58PM 44.1500 -81.2167 106° East 430 495 35,000  Level Toronto Center
05:59PM 44.1333 -81.0500 98° East 440 506 35,000  Level Toronto Center
06:00PM 44.1000 -80.8833 106° East 440 506 35,000  Level Toronto Center
06:01PM 44.0833 -80.7167 98° East 440 506 35,000  Level Toronto Center
06:02PM 44.0667 -80.5667 99° East 440 506 35,000  Level Toronto Center
06:03PM 44.0333 -80.3667 103° East 440 506 35,000  Level Toronto Center
06:04PM 44.0000 -80.2167 107° East 440 506 35,000  Level Toronto Center
06:05PM 43.9833 -80.0500 98° East 450 518 35,000  Level Toronto Center
06:06PM 43.9500 -79.8833 105° East 450 518 35,000  Level Toronto Center
06:07PM 43.9167 -79.7000 104° East 450 518 35,000  Level Toronto Center
06:08PM 43.9000 -79.5333 98° East 460 529 35,000  Level Toronto Center
06:09PM 43.8667 -79.3500 104° East 460 529 35,000  Level Toronto Center
06:10PM 43.8333 -79.2000 107° East 460 529 35,000  Level Toronto Center
06:11PM 43.8000 -79.0167 104° East 460 529 35,000  Level Toronto Center
06:12PM 43.7667 -78.8500 105° East 460 529 35,000  Level Toronto Center
06:13PM 43.7500 -78.6667 97° East 460 529 35,000  Level Toronto Center
06:14PM 43.7167 -78.5000 105° East 460 529 35,000  Level Toronto Center
06:15PM 43.6667 -78.3500 115° Southeast 460 529 35,000  Level Toronto Center
06:16PM 43.6333 -78.1667 104° East 460 529 35,000  Level Toronto Center
06:17PM 43.6167 -78.0000 98° East 460 529 35,000 -180 Level Toronto Center
06:18PM 43.6019 -77.8828 100° East 451 519 34,700 -780 Descending Cleveland Center
06:19PM 43.5711 -77.7181 104° East 451 519 33,700 -1,020 Descending Cleveland Center
06:20PM 43.5378 -77.5533 106° East 446 513 32,700 -1,020 Descending Cleveland Center
06:21PM 43.5083 -77.3889 104° East 446 513 31,700 -1,080 Descending Cleveland Center
06:22PM 43.4767 -77.2275 105° East 446 513 30,600 -1,080 Descending Cleveland Center
06:23PM 43.4392 -77.0503 106° East 440 506 29,400 -720 Descending Boston Center
06:24PM 43.4097 -76.8967 105° East 428 493 29,000 -240 Descending Boston Center
06:25PM 43.3786 -76.7314 104° East 428 493 29,000  Level Boston Center
06:26PM 43.3469 -76.5719 105° East 433 498 29,000  Level Boston Center
06:27PM 43.3131 -76.4069 106° East 438 504 29,000  Level Boston Center
06:28PM 43.2792 -76.2422 106° East 443 510 29,000  Level Boston Center
06:29PM 43.2469 -76.0775 105° East 443 510 29,000  Level Boston Center
06:30PM 43.2197 -75.9450 106° East 443 510 29,000 -840 Level Boston Center
06:31PM 43.1775 -75.7544 107° East 443 510 27,400 -2,040 Descending Boston Center
06:32PM 43.1425 -75.5989 107° East 438 504 25,000 -2,400 Descending Boston Center
06:33PM 43.1111 -75.4494 106° East 421 484 22,700 -2,280 Descending Boston Center
06:34PM 43.0814 -75.3028 105° East 410 472 20,500 -2,160 Descending Boston Center
06:35PM 43.0514 -75.1650 107° East 398 458 18,400 -2,100 Descending Boston Center
06:36PM 43.0233 -75.0303 106° East 379 436 16,300 -2,100 Descending Boston Center
06:37PM 42.9950 -74.9014 107° East 367 422 14,300 -2,160 Descending Boston Center
06:37PM 42.9778 -74.8239 107° East 339 390 13,000 -1,980 Descending Boston Center
06:38PM 42.9531 -74.7011 105° East 325 374 11,200 -1,020 Descending Boston Center
06:39PM 42.9261 -74.5894 108° East 310 357 11,000 -120 Descending Boston Center
06:40PM 42.8992 -74.4781 108° East 309 356 11,000 -600 Level Boston Center
06:41PM 42.8444 -74.3883 130° Southeast 277 319 9,900 -1,080 Descending Boston Center
06:42PM 42.7933 -74.3161 134° Southeast 256 295 8,900 -1,020 Descending Boston Center
06:43PM 42.7531 -74.2414 126° Southeast 242 278 7,900 -1,140 Descending Boston Center
06:44PM 42.7122 -74.1750 130° Southeast 238 274 6,700 -1,380 Descending Boston Center
06:45PM 42.6864 -74.0867 112° Southeast 246 283 5,200 -1,380 Descending Boston Center
06:46PM 42.6608 -73.9958 111° Southeast 250 288 4,000 -600 Descending Boston Center
06:47PM 42.6242 -73.9272 126° Southeast 222 255 4,000  Level Boston Center